sensor_id;sensor_type;location;lat;lon;timestamp;temperature;humidity
11925;DHT22;6022;48.768;18.608;2023-05-08T00:02:00;8.10;99.90
11925;DHT22;6022;48.768;18.608;2023-05-08T00:04:31;8.10;99.90
11925;DHT22;6022;48.768;18.608;2023-05-08T00:07:01;7.70;99.90
11925;DHT22;6022;48.768;18.608;2023-05-08T00:09:34;8.10;99.90
11925;DHT22;6022;48.768;18.608;2023-05-08T00:12:02;7.90;99.90
11925;DHT22;6022;48.768;18.608;2023-05-08T00:14:33;8.00;99.90
11925;DHT22;6022;48.768;18.608;2023-05-08T00:17:02;7.80;99.90
11925;DHT22;6022;48.768;18.608;2023-05-08T00:19:32;7.90;99.90
11925;DHT22;6022;48.768;18.608;2023-05-08T00:22:03;7.70;99.90
11925;DHT22;6022;48.768;18.608;2023-05-08T00:24:36;8.10;99.90
11925;DHT22;6022;48.768;18.608;2023-05-08T00:27:08;7.80;99.90
11925;DHT22;6022;48.768;18.608;2023-05-08T00:29:39;8.00;99.90
11925;DHT22;6022;48.768;18.608;2023-05-08T00:32:09;7.70;99.90
11925;DHT22;6022;48.768;18.608;2023-05-08T00:34:39;7.70;99.90
11925;DHT22;6022;48.768;18.608;2023-05-08T00:37:10;7.70;99.90
11925;DHT22;6022;48.768;18.608;2023-05-08T00:39:40;7.60;99.90
11925;DHT22;6022;48.768;18.608;2023-05-08T00:42:11;7.70;99.90
11925;DHT22;6022;48.768;18.608;2023-05-08T00:44:40;7.70;99.90
11925;DHT22;6022;48.768;18.608;2023-05-08T00:47:11;7.60;99.90
11925;DHT22;6022;48.768;18.608;2023-05-08T00:49:41;7.70;99.90
11925;DHT22;6022;48.768;18.608;2023-05-08T00:52:12;7.60;99.90
11925;DHT22;6022;48.768;18.608;2023-05-08T00:54:42;7.60;99.90
11925;DHT22;6022;48.768;18.608;2023-05-08T00:57:14;7.60;99.90
11925;DHT22;6022;48.768;18.608;2023-05-08T00:59:44;7.60;99.90
11925;DHT22;6022;48.768;18.608;2023-05-08T01:02:13;7.50;99.90
11925;DHT22;6022;48.768;18.608;2023-05-08T01:04:45;7.70;99.90
11925;DHT22;6022;48.768;18.608;2023-05-08T01:07:17;7.60;99.90
11925;DHT22;6022;48.768;18.608;2023-05-08T01:09:47;7.30;99.90
11925;DHT22;6022;48.768;18.608;2023-05-08T01:12:23;7.60;99.90
11925;DHT22;6022;48.768;18.608;2023-05-08T01:18:49;7.40;99.90
11925;DHT22;6022;48.768;18.608;2023-05-08T01:24:33;7.30;99.90
11925;DHT22;6022;48.768;18.608;2023-05-08T01:33:54;7.30;99.90
11925;DHT22;6022;48.768;18.608;2023-05-08T01:36:49;7.30;99.90
11925;DHT22;6022;48.768;18.608;2023-05-08T01:42:44;7.30;99.90
11925;DHT22;6022;48.768;18.608;2023-05-08T01:45:20;7.30;99.90
11925;DHT22;6022;48.768;18.608;2023-05-08T01:48:03;7.30;99.90
11925;DHT22;6022;48.768;18.608;2023-05-08T01:50:41;7.30;99.90
11925;DHT22;6022;48.768;18.608;2023-05-08T01:53:16;7.30;99.90
11925;DHT22;6022;48.768;18.608;2023-05-08T01:56:03;7.20;99.90
11925;DHT22;6022;48.768;18.608;2023-05-08T01:58:41;7.10;99.90
11925;DHT22;6022;48.768;18.608;2023-05-08T02:01:12;7.10;99.90
11925;DHT22;6022;48.768;18.608;2023-05-08T02:03:43;7.10;99.90
11925;DHT22;6022;48.768;18.608;2023-05-08T02:06:16;6.90;99.90
11925;DHT22;6022;48.768;18.608;2023-05-08T02:08:48;7.10;99.90
11925;DHT22;6022;48.768;18.608;2023-05-08T02:11:19;6.90;99.90
11925;DHT22;6022;48.768;18.608;2023-05-08T02:13:51;6.90;99.90
11925;DHT22;6022;48.768;18.608;2023-05-08T02:16:23;6.90;99.90
11925;DHT22;6022;48.768;18.608;2023-05-08T02:18:54;6.90;99.90
11925;DHT22;6022;48.768;18.608;2023-05-08T02:21:27;6.80;99.90
11925;DHT22;6022;48.768;18.608;2023-05-08T02:23:58;6.60;99.90
11925;DHT22;6022;48.768;18.608;2023-05-08T02:26:30;6.80;99.90
11925;DHT22;6022;48.768;18.608;2023-05-08T02:29:02;6.80;99.90
11925;DHT22;6022;48.768;18.608;2023-05-08T02:31:32;6.70;99.90
11925;DHT22;6022;48.768;18.608;2023-05-08T02:34:04;6.80;99.90
11925;DHT22;6022;48.768;18.608;2023-05-08T02:36:36;6.80;99.90
11925;DHT22;6022;48.768;18.608;2023-05-08T02:39:10;6.90;99.90
11925;DHT22;6022;48.768;18.608;2023-05-08T02:41:44;6.80;99.90
11925;DHT22;6022;48.768;18.608;2023-05-08T02:44:15;6.80;99.90
11925;DHT22;6022;48.768;18.608;2023-05-08T02:50:12;6.60;99.90
11925;DHT22;6022;48.768;18.608;2023-05-08T02:52:47;6.80;99.90
11925;DHT22;6022;48.768;18.608;2023-05-08T02:55:53;6.80;99.90
11925;DHT22;6022;48.768;18.608;2023-05-08T02:58:45;6.80;99.90
11925;DHT22;6022;48.768;18.608;2023-05-08T03:01:28;6.80;99.90
11925;DHT22;6022;48.768;18.608;2023-05-08T03:04:07;6.60;99.90
11925;DHT22;6022;48.768;18.608;2023-05-08T03:06:44;6.70;99.90
11925;DHT22;6022;48.768;18.608;2023-05-08T03:09:19;6.90;99.90
11925;DHT22;6022;48.768;18.608;2023-05-08T03:11:58;7.00;99.90
11925;DHT22;6022;48.768;18.608;2023-05-08T03:14:36;7.10;99.90
11925;DHT22;6022;48.768;18.608;2023-05-08T03:17:12;7.10;99.90
11925;DHT22;6022;48.768;18.608;2023-05-08T03:19:46;7.00;99.90
11925;DHT22;6022;48.768;18.608;2023-05-08T03:22:19;7.00;99.90
11925;DHT22;6022;48.768;18.608;2023-05-08T03:24:52;7.00;99.90
11925;DHT22;6022;48.768;18.608;2023-05-08T03:27:27;7.00;99.90
11925;DHT22;6022;48.768;18.608;2023-05-08T03:29:58;7.00;99.90
11925;DHT22;6022;48.768;18.608;2023-05-08T03:32:31;7.00;99.90
11925;DHT22;6022;48.768;18.608;2023-05-08T03:35:02;7.00;99.90
11925;DHT22;6022;48.768;18.608;2023-05-08T03:37:32;7.20;99.90
11925;DHT22;6022;48.768;18.608;2023-05-08T03:40:02;7.10;99.90
11925;DHT22;6022;48.768;18.608;2023-05-08T03:42:36;7.10;99.90
11925;DHT22;6022;48.768;18.608;2023-05-08T03:45:08;7.10;99.90
11925;DHT22;6022;48.768;18.608;2023-05-08T03:47:39;7.10;99.90
11925;DHT22;6022;48.768;18.608;2023-05-08T03:50:14;7.40;99.90
11925;DHT22;6022;48.768;18.608;2023-05-08T03:52:49;7.40;99.90
11925;DHT22;6022;48.768;18.608;2023-05-08T03:55:18;7.40;99.90
11925;DHT22;6022;48.768;18.608;2023-05-08T04:01:27;7.40;99.90
11925;DHT22;6022;48.768;18.608;2023-05-08T04:06:58;7.20;99.90
11925;DHT22;6022;48.768;18.608;2023-05-08T04:09:42;7.10;99.90
11925;DHT22;6022;48.768;18.608;2023-05-08T04:16:08;7.40;99.90
11925;DHT22;6022;48.768;18.608;2023-05-08T04:18:45;7.60;99.90
11925;DHT22;6022;48.768;18.608;2023-05-08T04:21:24;8.00;99.90
11925;DHT22;6022;48.768;18.608;2023-05-08T04:23:55;7.80;99.90
11925;DHT22;6022;48.768;18.608;2023-05-08T04:26:26;7.70;99.90
11925;DHT22;6022;48.768;18.608;2023-05-08T04:28:57;8.00;99.90
11925;DHT22;6022;48.768;18.608;2023-05-08T04:31:27;8.10;99.90
11925;DHT22;6022;48.768;18.608;2023-05-08T04:33:58;8.30;99.90
11925;DHT22;6022;48.768;18.608;2023-05-08T04:36:26;8.70;99.90
11925;DHT22;6022;48.768;18.608;2023-05-08T04:39:00;8.60;99.90
11925;DHT22;6022;48.768;18.608;2023-05-08T04:41:34;8.90;99.90
11925;DHT22;6022;48.768;18.608;2023-05-08T04:44:03;9.50;99.90
11925;DHT22;6022;48.768;18.608;2023-05-08T04:46:34;9.80;99.90
11925;DHT22;6022;48.768;18.608;2023-05-08T04:49:04;10.20;99.90
11925;DHT22;6022;48.768;18.608;2023-05-08T04:51:32;11.20;99.90
11925;DHT22;6022;48.768;18.608;2023-05-08T04:54:03;11.60;99.90
11925;DHT22;6022;48.768;18.608;2023-05-08T04:56:33;12.10;99.90
11925;DHT22;6022;48.768;18.608;2023-05-08T04:59:02;12.80;99.90
11925;DHT22;6022;48.768;18.608;2023-05-08T05:01:33;13.20;99.90
11925;DHT22;6022;48.768;18.608;2023-05-08T05:04:02;13.20;99.90
11925;DHT22;6022;48.768;18.608;2023-05-08T05:06:32;13.40;99.90
11925;DHT22;6022;48.768;18.608;2023-05-08T05:09:01;13.50;99.90
11925;DHT22;6022;48.768;18.608;2023-05-08T05:11:32;14.30;99.90
11925;DHT22;6022;48.768;18.608;2023-05-08T05:14:01;14.30;99.90
11925;DHT22;6022;48.768;18.608;2023-05-08T05:16:42;13.80;99.90
11925;DHT22;6022;48.768;18.608;2023-05-08T05:19:14;14.60;99.90
11925;DHT22;6022;48.768;18.608;2023-05-08T05:21:42;15.10;99.90
11925;DHT22;6022;48.768;18.608;2023-05-08T05:24:22;15.30;99.90
11925;DHT22;6022;48.768;18.608;2023-05-08T05:27:01;14.80;99.90
11925;DHT22;6022;48.768;18.608;2023-05-08T05:29:36;15.10;99.90
11925;DHT22;6022;48.768;18.608;2023-05-08T05:32:05;15.40;99.90
11925;DHT22;6022;48.768;18.608;2023-05-08T05:34:38;15.70;99.90
11925;DHT22;6022;48.768;18.608;2023-05-08T05:37:08;15.50;99.90
11925;DHT22;6022;48.768;18.608;2023-05-08T05:39:41;15.80;99.90
11925;DHT22;6022;48.768;18.608;2023-05-08T05:42:10;16.70;98.90
11925;DHT22;6022;48.768;18.608;2023-05-08T05:44:40;16.10;99.30
11925;DHT22;6022;48.768;18.608;2023-05-08T05:47:11;16.10;99.70
11925;DHT22;6022;48.768;18.608;2023-05-08T05:49:40;15.80;99.20
11925;DHT22;6022;48.768;18.608;2023-05-08T05:52:14;16.00;99.50
11925;DHT22;6022;48.768;18.608;2023-05-08T05:54:44;16.30;99.40
11925;DHT22;6022;48.768;18.608;2023-05-08T05:57:14;16.80;96.50
11925;DHT22;6022;48.768;18.608;2023-05-08T05:59:44;17.10;94.60
11925;DHT22;6022;48.768;18.608;2023-05-08T06:02:15;16.90;95.20
11925;DHT22;6022;48.768;18.608;2023-05-08T06:04:49;16.60;96.00
11925;DHT22;6022;48.768;18.608;2023-05-08T06:07:18;16.40;95.50
11925;DHT22;6022;48.768;18.608;2023-05-08T06:09:49;16.40;95.70
11925;DHT22;6022;48.768;18.608;2023-05-08T06:12:21;16.40;97.30
11925;DHT22;6022;48.768;18.608;2023-05-08T06:14:51;17.20;93.70
11925;DHT22;6022;48.768;18.608;2023-05-08T06:17:20;17.60;93.00
11925;DHT22;6022;48.768;18.608;2023-05-08T06:19:49;17.40;93.20
11925;DHT22;6022;48.768;18.608;2023-05-08T06:22:22;17.40;92.10
11925;DHT22;6022;48.768;18.608;2023-05-08T06:24:51;17.60;93.30
11925;DHT22;6022;48.768;18.608;2023-05-08T06:27:24;18.40;89.10
11925;DHT22;6022;48.768;18.608;2023-05-08T06:29:54;18.30;90.20
11925;DHT22;6022;48.768;18.608;2023-05-08T06:32:23;19.20;86.30
11925;DHT22;6022;48.768;18.608;2023-05-08T06:34:53;18.30;86.40
11925;DHT22;6022;48.768;18.608;2023-05-08T06:37:22;18.30;88.90
11925;DHT22;6022;48.768;18.608;2023-05-08T06:39:51;18.20;87.00
11925;DHT22;6022;48.768;18.608;2023-05-08T06:42:40;18.00;86.50
11925;DHT22;6022;48.768;18.608;2023-05-08T06:45:10;18.40;87.20
11925;DHT22;6022;48.768;18.608;2023-05-08T06:47:49;18.70;82.50
11925;DHT22;6022;48.768;18.608;2023-05-08T06:50:19;18.20;84.20
11925;DHT22;6022;48.768;18.608;2023-05-08T06:52:55;18.50;84.90
11925;DHT22;6022;48.768;18.608;2023-05-08T06:55:34;18.50;85.10
11925;DHT22;6022;48.768;18.608;2023-05-08T06:58:03;19.10;82.80
11925;DHT22;6022;48.768;18.608;2023-05-08T07:00:36;19.20;83.40
11925;DHT22;6022;48.768;18.608;2023-05-08T07:03:07;18.70;81.90
11925;DHT22;6022;48.768;18.608;2023-05-08T07:05:37;19.20;82.40
11925;DHT22;6022;48.768;18.608;2023-05-08T07:08:20;19.30;81.00
11925;DHT22;6022;48.768;18.608;2023-05-08T07:10:52;19.50;81.80
11925;DHT22;6022;48.768;18.608;2023-05-08T07:13:21;18.10;84.90
11925;DHT22;6022;48.768;18.608;2023-05-08T07:16:01;19.10;85.90
11925;DHT22;6022;48.768;18.608;2023-05-08T07:18:33;19.40;79.70
11925;DHT22;6022;48.768;18.608;2023-05-08T07:21:01;19.50;82.30
11925;DHT22;6022;48.768;18.608;2023-05-08T07:23:35;19.30;81.60
11925;DHT22;6022;48.768;18.608;2023-05-08T07:26:11;19.30;81.10
11925;DHT22;6022;48.768;18.608;2023-05-08T07:28:51;19.90;80.10
11925;DHT22;6022;48.768;18.608;2023-05-08T07:31:30;20.40;75.70
11925;DHT22;6022;48.768;18.608;2023-05-08T07:34:03;20.40;78.10
11925;DHT22;6022;48.768;18.608;2023-05-08T07:36:34;21.30;70.30
11925;DHT22;6022;48.768;18.608;2023-05-08T07:39:13;21.40;73.30
11925;DHT22;6022;48.768;18.608;2023-05-08T07:41:44;21.20;70.40
11925;DHT22;6022;48.768;18.608;2023-05-08T07:44:19;20.50;72.10
11925;DHT22;6022;48.768;18.608;2023-05-08T07:46:47;20.40;72.00
11925;DHT22;6022;48.768;18.608;2023-05-08T07:49:16;20.80;70.40
11925;DHT22;6022;48.768;18.608;2023-05-08T07:51:46;21.80;72.50
11925;DHT22;6022;48.768;18.608;2023-05-08T07:54:21;21.90;71.80
11925;DHT22;6022;48.768;18.608;2023-05-08T07:56:56;21.80;65.70
11925;DHT22;6022;48.768;18.608;2023-05-08T07:59:24;21.80;66.60
11925;DHT22;6022;48.768;18.608;2023-05-08T08:01:53;21.20;66.80
11925;DHT22;6022;48.768;18.608;2023-05-08T08:04:25;21.00;68.20
11925;DHT22;6022;48.768;18.608;2023-05-08T08:07:07;22.10;69.20
11925;DHT22;6022;48.768;18.608;2023-05-08T08:09:54;22.30;67.50
11925;DHT22;6022;48.768;18.608;2023-05-08T08:12:29;23.20;60.00
11925;DHT22;6022;48.768;18.608;2023-05-08T08:15:30;22.60;61.20
11925;DHT22;6022;48.768;18.608;2023-05-08T08:18:27;22.70;60.10
11925;DHT22;6022;48.768;18.608;2023-05-08T08:20:55;22.20;60.90
11925;DHT22;6022;48.768;18.608;2023-05-08T08:23:33;21.30;64.10
11925;DHT22;6022;48.768;18.608;2023-05-08T08:26:33;21.50;62.40
11925;DHT22;6022;48.768;18.608;2023-05-08T08:29:25;22.20;61.60
11925;DHT22;6022;48.768;18.608;2023-05-08T08:32:04;22.20;60.00
11925;DHT22;6022;48.768;18.608;2023-05-08T08:34:36;21.90;61.20
11925;DHT22;6022;48.768;18.608;2023-05-08T08:37:19;21.70;63.10
11925;DHT22;6022;48.768;18.608;2023-05-08T08:40:13;22.30;58.90
11925;DHT22;6022;48.768;18.608;2023-05-08T08:43:25;22.40;57.20
11925;DHT22;6022;48.768;18.608;2023-05-08T08:46:27;22.30;58.20
11925;DHT22;6022;48.768;18.608;2023-05-08T08:49:17;22.40;58.40
11925;DHT22;6022;48.768;18.608;2023-05-08T08:52:36;22.40;59.90
11925;DHT22;6022;48.768;18.608;2023-05-08T08:55:10;22.20;58.50
11925;DHT22;6022;48.768;18.608;2023-05-08T08:58:13;22.00;60.10
11925;DHT22;6022;48.768;18.608;2023-05-08T09:00:50;22.40;57.70
11925;DHT22;6022;48.768;18.608;2023-05-08T09:03:23;22.10;58.00
11925;DHT22;6022;48.768;18.608;2023-05-08T09:05:58;22.50;56.90
11925;DHT22;6022;48.768;18.608;2023-05-08T09:08:33;21.90;57.10
11925;DHT22;6022;48.768;18.608;2023-05-08T09:11:03;21.90;57.90
11925;DHT22;6022;48.768;18.608;2023-05-08T09:13:38;22.00;59.60
11925;DHT22;6022;48.768;18.608;2023-05-08T09:16:08;22.30;55.40
11925;DHT22;6022;48.768;18.608;2023-05-08T09:18:42;22.70;57.20
11925;DHT22;6022;48.768;18.608;2023-05-08T09:21:14;22.70;56.10
11925;DHT22;6022;48.768;18.608;2023-05-08T09:24:02;22.60;57.60
11925;DHT22;6022;48.768;18.608;2023-05-08T09:26:40;23.00;56.30
11925;DHT22;6022;48.768;18.608;2023-05-08T09:29:14;22.90;54.50
11925;DHT22;6022;48.768;18.608;2023-05-08T09:32:06;23.30;53.00
11925;DHT22;6022;48.768;18.608;2023-05-08T09:34:54;23.00;55.60
11925;DHT22;6022;48.768;18.608;2023-05-08T09:37:43;23.30;57.50
11925;DHT22;6022;48.768;18.608;2023-05-08T09:40:24;22.60;54.30
11925;DHT22;6022;48.768;18.608;2023-05-08T09:43:13;22.30;56.90
11925;DHT22;6022;48.768;18.608;2023-05-08T09:45:55;22.80;53.80
11925;DHT22;6022;48.768;18.608;2023-05-08T09:48:38;22.40;52.30
11925;DHT22;6022;48.768;18.608;2023-05-08T09:51:27;22.60;53.50
11925;DHT22;6022;48.768;18.608;2023-05-08T09:53:58;23.00;50.90
11925;DHT22;6022;48.768;18.608;2023-05-08T09:56:35;22.80;52.60
11925;DHT22;6022;48.768;18.608;2023-05-08T09:59:27;22.40;53.10
11925;DHT22;6022;48.768;18.608;2023-05-08T10:02:15;22.10;52.80
11925;DHT22;6022;48.768;18.608;2023-05-08T10:04:59;22.10;52.00
11925;DHT22;6022;48.768;18.608;2023-05-08T10:07:37;22.10;51.40
11925;DHT22;6022;48.768;18.608;2023-05-08T10:10:30;21.70;53.60
11925;DHT22;6022;48.768;18.608;2023-05-08T10:13:01;21.40;53.20
11925;DHT22;6022;48.768;18.608;2023-05-08T10:15:31;21.40;52.80
11925;DHT22;6022;48.768;18.608;2023-05-08T10:18:06;21.40;53.00
11925;DHT22;6022;48.768;18.608;2023-05-08T10:20:46;22.00;50.10
11925;DHT22;6022;48.768;18.608;2023-05-08T10:23:17;21.90;51.20
11925;DHT22;6022;48.768;18.608;2023-05-08T10:25:47;22.20;51.20
11925;DHT22;6022;48.768;18.608;2023-05-08T10:28:38;21.60;50.80
11925;DHT22;6022;48.768;18.608;2023-05-08T10:31:41;22.00;52.00
11925;DHT22;6022;48.768;18.608;2023-05-08T10:34:18;22.50;53.90
11925;DHT22;6022;48.768;18.608;2023-05-08T10:36:49;22.30;52.30
11925;DHT22;6022;48.768;18.608;2023-05-08T10:39:29;21.80;53.00
11925;DHT22;6022;48.768;18.608;2023-05-08T10:41:58;21.60;47.90
11925;DHT22;6022;48.768;18.608;2023-05-08T10:44:28;21.70;48.50
11925;DHT22;6022;48.768;18.608;2023-05-08T10:49:55;22.40;51.40
11925;DHT22;6022;48.768;18.608;2023-05-08T10:53:19;22.30;51.20
11925;DHT22;6022;48.768;18.608;2023-05-08T10:56:10;22.20;48.80
11925;DHT22;6022;48.768;18.608;2023-05-08T10:58:38;22.10;48.70
11925;DHT22;6022;48.768;18.608;2023-05-08T11:01:10;21.80;51.40
11925;DHT22;6022;48.768;18.608;2023-05-08T11:03:46;22.20;51.90
11925;DHT22;6022;48.768;18.608;2023-05-08T11:06:41;22.10;51.80
11925;DHT22;6022;48.768;18.608;2023-05-08T11:09:19;22.40;49.60
11925;DHT22;6022;48.768;18.608;2023-05-08T11:15:00;21.70;51.30
11925;DHT22;6022;48.768;18.608;2023-05-08T11:17:31;21.80;52.60
11925;DHT22;6022;48.768;18.608;2023-05-08T11:20:02;22.20;52.60
11925;DHT22;6022;48.768;18.608;2023-05-08T11:22:34;22.30;54.20
11925;DHT22;6022;48.768;18.608;2023-05-08T11:25:08;22.20;52.80
11925;DHT22;6022;48.768;18.608;2023-05-08T11:30:35;22.10;49.20
11925;DHT22;6022;48.768;18.608;2023-05-08T11:38:21;22.50;47.40
11925;DHT22;6022;48.768;18.608;2023-05-08T11:41:07;22.50;48.40
11925;DHT22;6022;48.768;18.608;2023-05-08T11:47:01;22.70;49.60
11925;DHT22;6022;48.768;18.608;2023-05-08T11:49:35;22.60;50.20
11925;DHT22;6022;48.768;18.608;2023-05-08T11:52:03;22.20;49.30
11925;DHT22;6022;48.768;18.608;2023-05-08T11:54:33;22.30;49.80
11925;DHT22;6022;48.768;18.608;2023-05-08T11:57:01;22.60;51.00
11925;DHT22;6022;48.768;18.608;2023-05-08T11:59:34;22.50;47.50
11925;DHT22;6022;48.768;18.608;2023-05-08T12:02:03;22.50;50.50
11925;DHT22;6022;48.768;18.608;2023-05-08T12:04:43;22.70;50.90
11925;DHT22;6022;48.768;18.608;2023-05-08T12:07:13;22.00;45.40
11925;DHT22;6022;48.768;18.608;2023-05-08T12:09:44;21.80;46.40
11925;DHT22;6022;48.768;18.608;2023-05-08T12:12:12;21.60;48.00
11925;DHT22;6022;48.768;18.608;2023-05-08T12:14:42;21.80;49.10
11925;DHT22;6022;48.768;18.608;2023-05-08T12:17:18;21.50;48.40
11925;DHT22;6022;48.768;18.608;2023-05-08T12:19:47;21.60;50.70
11925;DHT22;6022;48.768;18.608;2023-05-08T12:22:15;21.60;46.30
11925;DHT22;6022;48.768;18.608;2023-05-08T12:24:48;21.20;48.90
11925;DHT22;6022;48.768;18.608;2023-05-08T12:27:16;21.10;48.20
11925;DHT22;6022;48.768;18.608;2023-05-08T12:29:58;21.10;47.60
11925;DHT22;6022;48.768;18.608;2023-05-08T12:33:10;21.50;49.40
11925;DHT22;6022;48.768;18.608;2023-05-08T12:35:40;21.30;48.80
11925;DHT22;6022;48.768;18.608;2023-05-08T12:38:09;21.50;50.80
11925;DHT22;6022;48.768;18.608;2023-05-08T12:40:46;21.60;51.90
11925;DHT22;6022;48.768;18.608;2023-05-08T12:43:16;21.80;49.30
11925;DHT22;6022;48.768;18.608;2023-05-08T12:45:50;21.80;49.10
11925;DHT22;6022;48.768;18.608;2023-05-08T12:48:19;21.30;48.30
11925;DHT22;6022;48.768;18.608;2023-05-08T12:50:53;21.40;49.50
11925;DHT22;6022;48.768;18.608;2023-05-08T12:53:22;21.00;50.90
11925;DHT22;6022;48.768;18.608;2023-05-08T12:55:52;20.80;48.20
11925;DHT22;6022;48.768;18.608;2023-05-08T12:58:37;20.50;50.40
11925;DHT22;6022;48.768;18.608;2023-05-08T13:01:10;20.50;49.20
11925;DHT22;6022;48.768;18.608;2023-05-08T13:03:40;20.70;50.20
11925;DHT22;6022;48.768;18.608;2023-05-08T13:06:29;20.40;47.60
11925;DHT22;6022;48.768;18.608;2023-05-08T13:09:06;20.10;46.50
11925;DHT22;6022;48.768;18.608;2023-05-08T13:12:07;19.90;49.20
11925;DHT22;6022;48.768;18.608;2023-05-08T13:14:35;20.40;53.00
11925;DHT22;6022;48.768;18.608;2023-05-08T13:17:21;20.00;47.60
11925;DHT22;6022;48.768;18.608;2023-05-08T13:20:10;20.00;48.40
11925;DHT22;6022;48.768;18.608;2023-05-08T13:23:03;19.70;50.90
11925;DHT22;6022;48.768;18.608;2023-05-08T13:25:41;19.70;51.50
11925;DHT22;6022;48.768;18.608;2023-05-08T13:28:30;19.80;49.20
11925;DHT22;6022;48.768;18.608;2023-05-08T13:30:58;19.70;49.90
11925;DHT22;6022;48.768;18.608;2023-05-08T13:33:26;19.80;46.80
11925;DHT22;6022;48.768;18.608;2023-05-08T13:35:54;19.60;47.40
11925;DHT22;6022;48.768;18.608;2023-05-08T13:38:22;19.80;47.20
11925;DHT22;6022;48.768;18.608;2023-05-08T13:40:50;19.50;47.50
11925;DHT22;6022;48.768;18.608;2023-05-08T13:43:18;19.50;47.60
11925;DHT22;6022;48.768;18.608;2023-05-08T13:45:50;19.20;49.70
11925;DHT22;6022;48.768;18.608;2023-05-08T13:48:20;19.80;49.10
11925;DHT22;6022;48.768;18.608;2023-05-08T13:50:52;19.30;52.40
11925;DHT22;6022;48.768;18.608;2023-05-08T13:53:19;19.40;53.10
11925;DHT22;6022;48.768;18.608;2023-05-08T13:55:47;19.30;50.20
11925;DHT22;6022;48.768;18.608;2023-05-08T13:58:15;18.70;49.40
11925;DHT22;6022;48.768;18.608;2023-05-08T14:00:56;18.60;49.60
11925;DHT22;6022;48.768;18.608;2023-05-08T14:03:44;18.40;48.60
11925;DHT22;6022;48.768;18.608;2023-05-08T14:06:12;18.30;52.80
11925;DHT22;6022;48.768;18.608;2023-05-08T14:08:41;18.30;53.90
11925;DHT22;6022;48.768;18.608;2023-05-08T14:11:13;18.50;50.70
11925;DHT22;6022;48.768;18.608;2023-05-08T14:13:42;18.50;50.80
11925;DHT22;6022;48.768;18.608;2023-05-08T14:16:11;18.40;50.40
11925;DHT22;6022;48.768;18.608;2023-05-08T14:18:40;18.40;52.00
11925;DHT22;6022;48.768;18.608;2023-05-08T14:21:09;18.30;51.50
11925;DHT22;6022;48.768;18.608;2023-05-08T14:23:38;18.10;54.40
11925;DHT22;6022;48.768;18.608;2023-05-08T14:26:07;18.40;52.30
11925;DHT22;6022;48.768;18.608;2023-05-08T14:28:35;18.50;53.10
11925;DHT22;6022;48.768;18.608;2023-05-08T14:31:03;18.50;53.10
11925;DHT22;6022;48.768;18.608;2023-05-08T14:33:31;18.50;53.70
11925;DHT22;6022;48.768;18.608;2023-05-08T14:35:59;18.30;52.70
11925;DHT22;6022;48.768;18.608;2023-05-08T14:38:27;18.30;56.10
11925;DHT22;6022;48.768;18.608;2023-05-08T14:40:55;17.60;51.60
11925;DHT22;6022;48.768;18.608;2023-05-08T14:43:23;17.90;52.10
11925;DHT22;6022;48.768;18.608;2023-05-08T14:45:51;17.60;52.30
11925;DHT22;6022;48.768;18.608;2023-05-08T14:48:19;17.20;53.10
11925;DHT22;6022;48.768;18.608;2023-05-08T14:50:47;17.10;52.20
11925;DHT22;6022;48.768;18.608;2023-05-08T14:53:15;17.10;52.60
11925;DHT22;6022;48.768;18.608;2023-05-08T14:55:43;17.20;52.40
11925;DHT22;6022;48.768;18.608;2023-05-08T14:58:12;17.30;52.60
11925;DHT22;6022;48.768;18.608;2023-05-08T15:00:41;17.10;53.30
11925;DHT22;6022;48.768;18.608;2023-05-08T15:03:09;17.00;52.50
11925;DHT22;6022;48.768;18.608;2023-05-08T15:05:40;16.90;52.80
11925;DHT22;6022;48.768;18.608;2023-05-08T15:08:08;16.80;51.80
11925;DHT22;6022;48.768;18.608;2023-05-08T15:10:37;16.80;53.50
11925;DHT22;6022;48.768;18.608;2023-05-08T15:13:05;17.10;54.70
11925;DHT22;6022;48.768;18.608;2023-05-08T15:15:35;17.20;55.50
11925;DHT22;6022;48.768;18.608;2023-05-08T15:18:04;16.90;55.50
11925;DHT22;6022;48.768;18.608;2023-05-08T15:20:31;16.80;55.50
11925;DHT22;6022;48.768;18.608;2023-05-08T15:22:59;16.80;56.80
11925;DHT22;6022;48.768;18.608;2023-05-08T15:25:27;16.70;56.10
11925;DHT22;6022;48.768;18.608;2023-05-08T15:27:55;16.70;57.60
11925;DHT22;6022;48.768;18.608;2023-05-08T15:30:26;16.70;57.90
11925;DHT22;6022;48.768;18.608;2023-05-08T15:32:54;16.60;58.30
11925;DHT22;6022;48.768;18.608;2023-05-08T15:35:26;16.50;57.10
11925;DHT22;6022;48.768;18.608;2023-05-08T15:37:54;16.40;57.20
11925;DHT22;6022;48.768;18.608;2023-05-08T15:40:22;15.80;57.50
11925;DHT22;6022;48.768;18.608;2023-05-08T15:42:55;15.70;59.30
11925;DHT22;6022;48.768;18.608;2023-05-08T15:45:23;16.20;59.10
11925;DHT22;6022;48.768;18.608;2023-05-08T15:47:51;16.20;60.40
11925;DHT22;6022;48.768;18.608;2023-05-08T15:50:24;16.10;60.40
11925;DHT22;6022;48.768;18.608;2023-05-08T15:52:54;15.60;58.60
11925;DHT22;6022;48.768;18.608;2023-05-08T15:55:25;15.80;59.50
11925;DHT22;6022;48.768;18.608;2023-05-08T15:57:56;15.60;60.30
11925;DHT22;6022;48.768;18.608;2023-05-08T16:00:24;15.90;60.10
11925;DHT22;6022;48.768;18.608;2023-05-08T16:03:08;15.80;61.00
11925;DHT22;6022;48.768;18.608;2023-05-08T16:05:36;15.30;59.40
11925;DHT22;6022;48.768;18.608;2023-05-08T16:08:08;15.20;62.20
11925;DHT22;6022;48.768;18.608;2023-05-08T16:10:39;15.20;62.60
11925;DHT22;6022;48.768;18.608;2023-05-08T16:13:08;15.20;62.10
11925;DHT22;6022;48.768;18.608;2023-05-08T16:15:37;15.30;63.00
11925;DHT22;6022;48.768;18.608;2023-05-08T16:18:07;15.30;62.80
11925;DHT22;6022;48.768;18.608;2023-05-08T16:20:38;15.10;62.70
11925;DHT22;6022;48.768;18.608;2023-05-08T16:23:07;15.10;63.10
11925;DHT22;6022;48.768;18.608;2023-05-08T16:25:37;15.00;63.80
11925;DHT22;6022;48.768;18.608;2023-05-08T16:28:08;14.80;63.90
11925;DHT22;6022;48.768;18.608;2023-05-08T16:30:36;14.50;65.20
11925;DHT22;6022;48.768;18.608;2023-05-08T16:33:04;14.70;66.50
11925;DHT22;6022;48.768;18.608;2023-05-08T16:35:34;14.60;66.30
11925;DHT22;6022;48.768;18.608;2023-05-08T16:38:07;14.70;66.00
11925;DHT22;6022;48.768;18.608;2023-05-08T16:40:35;14.90;67.50
11925;DHT22;6022;48.768;18.608;2023-05-08T16:43:07;14.60;67.80
11925;DHT22;6022;48.768;18.608;2023-05-08T16:46:11;14.40;68.50
11925;DHT22;6022;48.768;18.608;2023-05-08T16:48:40;14.70;70.30
11925;DHT22;6022;48.768;18.608;2023-05-08T16:51:19;14.30;71.00
11925;DHT22;6022;48.768;18.608;2023-05-08T16:53:57;14.20;71.50
11925;DHT22;6022;48.768;18.608;2023-05-08T16:56:28;14.30;72.50
11925;DHT22;6022;48.768;18.608;2023-05-08T16:58:56;14.00;72.60
11925;DHT22;6022;48.768;18.608;2023-05-08T17:01:24;14.00;73.30
11925;DHT22;6022;48.768;18.608;2023-05-08T17:03:53;14.00;74.70
11925;DHT22;6022;48.768;18.608;2023-05-08T17:06:28;14.00;74.00
11925;DHT22;6022;48.768;18.608;2023-05-08T17:08:56;13.90;74.30